CheckWX is a tool to help pilots better visualize weather data.  It is not intended as a substitute for an official pre-flight weather briefing.

02:08:38 UTC

MNMG TAF
Augusto C. Sandino (Managua) International Airport
Managua, Nicaragua
MNMG 182204Z 1900/1924 09015KT 9999 FEW035 FM190100 08008KT CAVOK BECMG 1914/1918 8012KT 9999 FEW020

Mar-19@
00:00 UTC

Mar-19 @ 00:00 UTC

Mar-19@
01:00 UTC

Mar-19 @ 01:00 UTC

MNMG 182204Z 1900/1924 09015KT 9999 FEW035

Expired

Wind
  • 090° at 15 KTS
Cloud Levels
  • Few at 3,500' AGL

Mar-19@
01:00 UTC

Mar-19 @ 01:00 UTC

Mar-19@
14:00 UTC

Mar-19 @ 14:00 UTC

FM190100 08008KT CAVOK

From

From Standard forecast or significant change

Wind
  • 080° at 8 KTS
Conditions
No significant weather
Cloud Levels
  • No significant clouds

Mar-19@
14:00 UTC

Mar-19 @ 14:00 UTC

Mar-20@
00:00 UTC

Mar-20 @ 00:00 UTC

BECMG 1914/1918 8012KT 9999 FEW020

Becoming

Becoming Conditions expected by Tue, Mar 19, 2019 @ 18:00 UTC

Wind
  • 080° at 8 KTS
Conditions
No significant weather
Cloud Levels
  • Few at 2,000' AGL